createdAt,value
2018-04-02T00:01:38.317Z,86.80
2018-04-02T00:04:06.610Z,86.60
2018-04-02T00:06:34.922Z,86.30
2018-04-02T00:09:02.454Z,86.30
2018-04-02T00:11:30.001Z,86.60
2018-04-02T00:13:57.523Z,86.60
2018-04-02T00:16:26.533Z,86.20
2018-04-02T00:18:54.064Z,86.20
2018-04-02T00:21:21.643Z,86.10
2018-04-02T00:23:50.301Z,86.00
2018-04-02T00:26:17.883Z,86.00
2018-04-02T00:28:45.853Z,86.10
2018-04-02T00:31:13.400Z,86.00
2018-04-02T00:33:41.673Z,86.10
2018-04-02T00:36:10.023Z,86.00
2018-04-02T00:38:37.666Z,86.00
2018-04-02T00:41:05.264Z,86.00
2018-04-02T00:43:32.785Z,86.00
2018-04-02T00:46:01.230Z,86.20
2018-04-02T00:48:28.748Z,86.00
2018-04-02T00:50:56.319Z,86.10
2018-04-02T00:53:23.946Z,86.10
2018-04-02T00:55:51.534Z,86.10
2018-04-02T00:58:19.929Z,86.10
2018-04-02T01:00:47.704Z,86.00
2018-04-02T01:03:15.235Z,86.30
2018-04-02T01:05:42.754Z,86.30
2018-04-02T01:08:10.313Z,86.50
2018-04-02T01:10:37.892Z,86.70
2018-04-02T01:13:05.415Z,86.90
2018-04-02T01:15:32.934Z,87.20
2018-04-02T01:18:00.470Z,87.30
2018-04-02T01:20:27.976Z,87.70
2018-04-02T01:22:55.509Z,87.80
2018-04-02T01:25:23.081Z,88.10
2018-04-02T01:27:50.584Z,88.40
2018-04-02T01:30:18.097Z,88.60
2018-04-02T01:32:46.383Z,89.20
2018-04-02T01:35:14.656Z,89.30
2018-04-02T01:37:42.186Z,89.30
2018-04-02T01:40:09.707Z,89.40
2018-04-02T01:42:37.241Z,89.10
2018-04-02T01:45:04.755Z,89.20
2018-04-02T01:47:33.052Z,89.80
2018-04-02T01:50:01.360Z,89.20
2018-04-02T01:52:28.895Z,89.20
2018-04-02T01:54:56.415Z,89.30
2018-04-02T01:57:23.939Z,90.00
2018-04-02T01:59:51.453Z,90.00
2018-04-02T02:02:19.014Z,90.20
2018-04-02T02:04:46.533Z,90.30
2018-04-02T02:07:14.047Z,90.30
2018-04-02T02:09:42.343Z,90.50
2018-04-02T02:12:10.642Z,90.50
2018-04-02T02:14:38.184Z,90.80
2018-04-02T02:17:05.690Z,90.60
2018-04-02T02:19:33.226Z,90.60
2018-04-02T02:22:00.743Z,90.90
2018-04-02T02:24:28.272Z,90.90
2018-04-02T02:26:55.800Z,90.90
2018-04-02T02:29:23.375Z,90.90
2018-04-02T02:31:50.887Z,90.90
2018-04-02T02:34:18.416Z,90.90
2018-04-02T02:36:45.928Z,90.90
2018-04-02T02:39:13.453Z,90.90
2018-04-02T02:41:40.980Z,91.00
2018-04-02T02:44:09.273Z,90.90
2018-04-02T02:46:37.566Z,90.90
2018-04-02T02:49:05.882Z,91.00
2018-04-02T02:51:33.419Z,91.00
2018-04-02T02:54:01.717Z,91.10
2018-04-02T02:56:30.014Z,91.20
2018-04-02T02:58:58.321Z,91.30
2018-04-02T03:01:25.833Z,91.30
2018-04-02T03:03:53.404Z,91.40
2018-04-02T03:06:20.926Z,91.60
2018-04-02T03:08:48.474Z,91.70
2018-04-02T03:11:16.752Z,92.00
2018-04-02T03:13:44.285Z,92.00
2018-04-02T03:16:11.801Z,92.00
2018-04-02T03:18:40.136Z,92.00
2018-04-02T03:21:07.667Z,92.00
2018-04-02T03:23:35.949Z,91.70
2018-04-02T03:26:03.509Z,91.80
2018-04-02T03:28:31.031Z,91.90
2018-04-02T03:30:58.583Z,92.00
2018-04-02T03:33:26.860Z,92.30
2018-04-02T03:35:54.397Z,92.30
2018-04-02T03:38:21.908Z,92.20
2018-04-02T03:40:50.213Z,92.10
2018-04-02T03:43:17.732Z,92.10
2018-04-02T03:45:45.270Z,92.20
2018-04-02T03:48:12.823Z,92.30
2018-04-02T03:50:41.123Z,92.20
2018-04-02T03:53:08.645Z,92.20
2018-04-02T03:55:36.177Z,92.30
2018-04-02T03:58:03.690Z,92.40
2018-04-02T04:00:31.239Z,92.50
2018-04-02T04:02:58.752Z,92.70
2018-04-02T04:05:26.289Z,92.60
2018-04-02T04:07:53.804Z,93.00
2018-04-02T04:10:21.355Z,92.70
2018-04-02T04:12:48.869Z,92.70
2018-04-02T04:15:16.409Z,92.60
2018-04-02T04:17:43.923Z,92.60
2018-04-02T04:20:11.473Z,92.80
2018-04-02T04:22:38.998Z,92.50
2018-04-02T04:25:06.545Z,92.50
2018-04-02T04:27:34.048Z,92.60
2018-04-02T04:30:01.595Z,92.80
2018-04-02T04:32:29.133Z,92.80
2018-04-02T04:34:57.423Z,92.80
2018-04-02T04:37:25.725Z,92.90
2018-04-02T04:39:53.253Z,92.90
2018-04-02T04:42:20.811Z,92.70
2018-04-02T04:44:48.334Z,92.70
2018-04-02T04:47:15.856Z,92.80
2018-04-02T04:49:43.374Z,92.90
2018-04-02T04:52:10.928Z,92.90
2018-04-02T04:54:39.209Z,92.80
2018-04-02T04:57:07.517Z,93.10
2018-04-02T04:59:35.804Z,92.80
2018-04-02T05:02:04.109Z,92.80
2018-04-02T05:04:31.640Z,92.80
2018-04-02T05:06:59.169Z,92.90
2018-04-02T05:09:26.672Z,93.20
2018-04-02T05:11:54.209Z,93.00
2018-04-02T05:14:21.766Z,92.90
2018-04-02T05:16:49.874Z,93.00
2018-04-02T05:19:17.399Z,93.00
2018-04-02T05:21:45.701Z,92.70
2018-04-02T05:24:13.236Z,92.70
2018-04-02T05:26:40.759Z,92.60
2018-04-02T05:29:08.271Z,92.20
2018-04-02T05:31:35.805Z,91.80
2018-04-02T05:34:03.322Z,91.40
2018-04-02T05:36:30.856Z,91.40
2018-04-02T05:38:58.372Z,91.30
2018-04-02T05:41:25.896Z,90.90
2018-04-02T05:43:53.612Z,90.90
2018-04-02T05:46:21.185Z,90.90
2018-04-02T05:48:48.696Z,90.60
2018-04-02T05:51:16.217Z,90.50
2018-04-02T05:53:43.786Z,90.50
2018-04-02T05:56:11.303Z,90.20
2018-04-02T05:58:39.653Z,89.60
2018-04-02T06:01:07.173Z,89.60
2018-04-02T06:03:34.725Z,89.40
2018-04-02T06:06:03.000Z,88.90
2018-04-02T06:08:30.548Z,88.80
2018-04-02T06:10:58.061Z,88.20
2018-04-02T06:13:26.361Z,87.30
2018-04-02T06:15:54.649Z,86.70
2018-04-02T06:18:22.956Z,86.70
2018-04-02T06:20:50.511Z,86.50
2018-04-02T06:23:18.849Z,86.10
2018-04-02T06:25:46.399Z,86.10
2018-04-02T06:28:13.949Z,86.10
2018-04-02T06:30:41.460Z,85.50
2018-04-02T06:33:09.004Z,85.50
2018-04-02T06:35:36.521Z,85.50
2018-04-02T06:38:04.068Z,85.10
2018-04-02T06:40:31.577Z,84.60
2018-04-02T06:42:59.112Z,83.90
2018-04-02T06:45:26.621Z,83.60
2018-04-02T06:47:54.153Z,83.10
2018-04-02T06:50:21.678Z,82.50
2018-04-02T06:52:49.233Z,82.30
2018-04-02T06:55:16.746Z,81.80
2018-04-02T06:57:44.308Z,81.40
2018-04-02T07:00:12.581Z,80.60
2018-04-02T07:02:40.882Z,80.80
2018-04-02T07:05:09.157Z,80.50
2018-04-02T07:07:37.523Z,79.90
2018-04-02T07:10:05.058Z,79.90
2018-04-02T07:12:32.624Z,79.90
2018-04-02T07:15:00.167Z,79.30
2018-04-02T07:17:28.485Z,78.90
2018-04-02T07:19:56.013Z,78.90
2018-04-02T07:22:23.538Z,77.90
2018-04-02T07:24:51.084Z,76.70
2018-04-02T07:27:19.367Z,75.30
2018-04-02T07:29:46.949Z,75.30
2018-04-02T07:32:15.229Z,74.20
2018-04-02T07:34:43.533Z,73.90
2018-04-02T07:37:11.055Z,73.80
2018-04-02T07:39:38.598Z,72.80
2018-04-02T07:42:06.112Z,72.80
2018-04-02T07:44:33.645Z,72.80
2018-04-02T07:47:01.177Z,72.80
2018-04-02T07:49:29.477Z,72.80
2018-04-02T07:51:57.777Z,72.30
2018-04-02T07:54:26.359Z,72.30
2018-04-02T07:56:53.884Z,72.30
2018-04-02T07:59:21.510Z,71.40
2018-04-02T08:01:49.917Z,71.70
2018-04-02T08:04:17.502Z,71.00
2018-04-02T08:06:46.042Z,71.10
2018-04-02T08:09:13.568Z,71.00
2018-04-02T08:11:41.078Z,71.10
2018-04-02T08:14:08.595Z,71.10
2018-04-02T08:16:37.183Z,71.20
2018-04-02T08:19:04.733Z,71.40
2018-04-02T08:21:32.317Z,69.90
2018-04-02T08:24:01.274Z,69.40
2018-04-02T08:26:28.813Z,69.50
2018-04-02T08:28:56.322Z,68.70
2018-04-02T08:31:23.944Z,67.90
2018-04-02T08:33:51.535Z,68.30
2018-04-02T08:36:19.073Z,68.20
2018-04-02T08:38:47.501Z,67.20
2018-04-02T08:41:15.846Z,66.20
2018-04-02T08:43:43.374Z,66.20
2018-04-02T08:46:10.934Z,66.00
2018-04-02T08:48:39.101Z,65.00
2018-04-02T08:51:10.263Z,64.40
2018-04-02T08:53:38.972Z,62.00
2018-04-02T08:56:07.568Z,62.00
2018-04-02T08:58:35.108Z,62.20
2018-04-02T09:01:02.650Z,61.80
2018-04-02T09:03:35.019Z,62.40
2018-04-02T09:06:02.614Z,60.40
2018-04-02T09:08:30.987Z,59.80
2018-04-02T09:10:58.526Z,59.70
2018-04-02T09:13:26.063Z,58.50
2018-04-02T09:15:53.606Z,57.90
2018-04-02T09:18:21.130Z,58.00
2018-04-02T09:20:49.441Z,58.00
2018-04-02T09:23:16.969Z,57.90
2018-04-02T09:25:44.567Z,57.20
2018-04-02T09:28:12.142Z,57.30
2018-04-02T09:30:40.469Z,56.10
2018-04-02T09:33:07.997Z,56.00
2018-04-02T09:35:36.322Z,55.70
2018-04-02T09:38:03.882Z,55.60
2018-04-02T09:40:31.399Z,55.30
2018-04-02T09:42:59.042Z,55.30
2018-04-02T09:45:27.397Z,55.20
2018-04-02T09:47:55.721Z,54.40
2018-04-02T09:50:23.245Z,54.30
2018-04-02T09:52:51.572Z,55.10
2018-04-02T09:55:19.097Z,55.10
2018-04-02T09:57:46.650Z,54.60
2018-04-02T10:00:14.204Z,55.10
2018-04-02T10:02:48.473Z,55.20
2018-04-02T10:05:16.001Z,55.30
2018-04-02T10:07:52.334Z,55.30
2018-04-02T10:10:20.736Z,53.60
2018-04-02T10:12:48.211Z,53.60
2018-04-02T10:15:16.508Z,53.40
2018-04-02T10:17:44.051Z,53.40
2018-04-02T10:20:11.586Z,53.50
2018-04-02T10:22:39.162Z,54.00
2018-04-02T10:25:07.452Z,52.50
2018-04-02T10:27:35.769Z,52.10
2018-04-02T10:30:03.321Z,52.10
2018-04-02T10:32:30.877Z,52.10
2018-04-02T10:34:59.195Z,52.00
2018-04-02T10:37:27.106Z,52.00
2018-04-02T10:39:55.412Z,52.50
2018-04-02T10:42:24.094Z,52.40
2018-04-02T10:44:52.503Z,52.40
2018-04-02T10:47:20.089Z,52.30
2018-04-02T10:49:47.625Z,51.90
2018-04-02T10:52:15.932Z,51.50
2018-04-02T10:54:44.236Z,50.70
2018-04-02T10:57:12.531Z,51.00
2018-04-02T10:59:40.066Z,50.90
2018-04-02T11:02:07.608Z,50.60
2018-04-02T11:04:35.156Z,50.10
2018-04-02T11:07:02.669Z,48.40
2018-04-02T11:09:30.230Z,49.70
2018-04-02T11:11:57.748Z,48.90
2018-04-02T11:14:26.064Z,48.30
2018-04-02T11:16:53.661Z,48.30
2018-04-02T11:19:21.261Z,48.00
2018-04-02T11:21:49.566Z,48.10
2018-04-02T11:24:17.106Z,48.10
2018-04-02T11:26:44.634Z,47.60
2018-04-02T11:29:12.183Z,47.10
2018-04-02T11:31:40.481Z,47.00
2018-04-02T11:34:08.041Z,46.60
2018-04-02T11:36:36.340Z,45.60
2018-04-02T11:39:03.877Z,45.50
2018-04-02T11:41:31.409Z,46.00
2018-04-02T11:43:58.936Z,46.20
2018-04-02T11:46:27.232Z,45.30
2018-04-02T11:48:55.539Z,44.50
2018-04-02T11:51:23.074Z,44.60
2018-04-02T11:53:50.620Z,45.20
2018-04-02T11:56:18.139Z,44.60
2018-04-02T11:58:46.440Z,45.30
2018-04-02T12:01:13.952Z,45.30
2018-04-02T12:03:42.266Z,45.10
2018-04-02T12:06:09.809Z,45.10
2018-04-02T12:08:37.366Z,44.80
2018-04-02T12:11:04.880Z,44.60
2018-04-02T12:13:32.424Z,44.70
2018-04-02T12:15:59.960Z,44.40
2018-04-02T12:18:27.501Z,43.80
2018-04-02T12:20:55.927Z,43.70
2018-04-02T12:23:23.546Z,43.70
2018-04-02T12:25:51.108Z,43.30
2018-04-02T12:28:18.647Z,42.50
2018-04-02T12:30:46.200Z,42.00
2018-04-02T12:33:14.590Z,42.50
2018-04-02T12:35:42.136Z,42.50
2018-04-02T12:38:10.454Z,41.50
2018-04-02T12:40:38.036Z,41.50
2018-04-02T12:43:05.571Z,40.60
2018-04-02T12:45:33.926Z,40.40
2018-04-02T12:48:02.217Z,40.70
2018-04-02T12:50:30.543Z,40.40
2018-04-02T12:52:58.089Z,40.40
2018-04-02T12:55:25.625Z,39.70
2018-04-02T12:57:53.140Z,39.80
2018-04-02T13:00:20.687Z,40.40
2018-04-02T13:02:48.200Z,39.80
2018-04-02T13:05:15.819Z,39.70
2018-04-02T13:07:43.332Z,39.40
2018-04-02T13:10:10.877Z,40.00
2018-04-02T13:12:38.396Z,39.80
2018-04-02T13:15:05.925Z,39.10
2018-04-02T13:17:33.443Z,41.00
2018-04-02T13:20:01.000Z,38.50
2018-04-02T13:22:28.512Z,38.40
2018-04-02T13:24:56.044Z,38.10
2018-04-02T13:27:23.579Z,38.00
2018-04-02T13:29:51.129Z,38.70
2018-04-02T13:32:18.645Z,39.80
2018-04-02T13:34:46.219Z,38.50
2018-04-02T13:37:13.729Z,36.90
2018-04-02T13:39:42.021Z,36.60
2018-04-02T13:42:10.340Z,36.00
2018-04-02T13:44:37.866Z,36.00
2018-04-02T13:47:06.185Z,34.70
2018-04-02T13:49:33.705Z,34.60
2018-04-02T13:52:01.246Z,34.50
2018-04-02T13:54:28.769Z,33.90
2018-04-02T13:56:56.319Z,33.80
2018-04-02T13:59:23.838Z,33.10
2018-04-02T14:01:52.128Z,32.20
2018-04-02T14:04:19.648Z,32.20
2018-04-02T14:06:47.260Z,33.70
2018-04-02T14:09:15.557Z,32.10
2018-04-02T14:11:43.864Z,31.10
2018-04-02T14:16:48.140Z,31.80
2018-04-02T14:19:15.664Z,31.10
2018-04-02T14:21:44.231Z,31.30
2018-04-02T14:24:11.774Z,31.70
2018-04-02T14:26:39.403Z,30.80
2018-04-02T14:29:07.765Z,31.40
2018-04-02T14:31:35.368Z,31.40
2018-04-02T14:34:03.700Z,30.60
2018-04-02T14:36:31.236Z,30.60
2018-04-02T14:38:59.516Z,30.60
2018-04-02T14:41:27.155Z,30.60
2018-04-02T14:43:54.727Z,30.90
2018-04-02T14:46:23.037Z,30.00
2018-04-02T14:48:50.552Z,29.30
2018-04-02T14:51:18.853Z,29.50
2018-04-02T14:53:47.140Z,29.60
2018-04-02T14:56:14.685Z,29.50
2018-04-02T14:58:42.216Z,29.60
2018-04-02T15:01:10.230Z,29.70
2018-04-02T15:03:37.768Z,30.80
2018-04-02T15:06:05.296Z,29.30
2018-04-02T15:08:33.620Z,28.50
2018-04-02T15:11:01.132Z,28.60
2018-04-02T15:13:28.687Z,29.00
2018-04-02T15:15:56.294Z,29.90
2018-04-02T15:18:24.601Z,28.90
2018-04-02T15:20:52.154Z,28.90
2018-04-02T15:23:21.496Z,29.00
2018-04-02T15:25:49.022Z,29.00
2018-04-02T15:28:16.624Z,28.60
2018-04-02T15:30:49.021Z,28.40
2018-04-02T15:33:16.587Z,28.30
2018-04-02T15:35:44.116Z,29.00
2018-04-02T15:38:11.684Z,30.00
2018-04-02T15:40:39.209Z,30.10
2018-04-02T15:43:06.752Z,30.90
2018-04-02T15:45:35.047Z,30.70
2018-04-02T15:48:03.349Z,30.70
2018-04-02T15:50:31.625Z,30.60
2018-04-02T15:52:59.930Z,30.60
2018-04-02T15:55:27.445Z,30.60
2018-04-02T15:57:55.066Z,31.80
2018-04-02T16:00:23.379Z,31.60
2018-04-02T16:02:50.896Z,31.50
2018-04-02T16:05:18.432Z,30.50
2018-04-02T16:07:45.941Z,30.50
2018-04-02T16:10:13.475Z,31.30
2018-04-02T16:12:40.988Z,30.50
2018-04-02T16:15:08.527Z,30.50
2018-04-02T16:17:36.053Z,31.70
2018-04-02T16:20:04.355Z,31.90
2018-04-02T16:22:32.631Z,32.50
2018-04-02T16:25:00.205Z,32.50
2018-04-02T16:27:28.480Z,31.80
2018-04-02T16:29:56.029Z,31.80
2018-04-02T16:32:23.540Z,32.90
2018-04-02T16:34:51.850Z,33.40
2018-04-02T16:37:19.383Z,33.40
2018-04-02T16:39:46.933Z,33.20
2018-04-02T16:42:14.468Z,32.40
2018-04-02T16:44:42.033Z,33.60
2018-04-02T16:47:09.588Z,32.90
2018-04-02T16:49:37.228Z,32.90
2018-04-02T16:52:04.760Z,33.20
2018-04-02T16:54:32.304Z,33.80
2018-04-02T16:57:00.601Z,34.50
2018-04-02T16:59:28.164Z,34.40
2018-04-02T17:01:56.447Z,34.80
2018-04-02T17:04:24.760Z,34.30
2018-04-02T17:06:52.278Z,34.30
2018-04-02T17:09:19.796Z,35.60
2018-04-02T17:11:48.316Z,36.00
2018-04-02T17:14:15.827Z,36.00
2018-04-02T17:16:43.403Z,36.90
2018-04-02T17:19:10.962Z,39.60
2018-04-02T17:21:38.593Z,40.20
2018-04-02T17:24:06.111Z,40.40
2018-04-02T17:26:33.643Z,39.30
2018-04-02T17:29:01.185Z,39.10
2018-04-02T17:31:28.720Z,39.00
2018-04-02T17:33:56.235Z,40.40
2018-04-02T17:36:24.552Z,39.80
2018-04-02T17:38:52.069Z,39.70
2018-04-02T17:41:19.607Z,39.40
2018-04-02T17:43:47.118Z,40.10
2018-04-02T17:46:14.665Z,40.50
2018-04-02T17:48:42.183Z,40.40
2018-04-02T17:51:10.505Z,41.00
2018-04-02T17:53:38.016Z,41.10
2018-04-02T17:56:05.649Z,40.90
2018-04-02T17:58:33.224Z,40.80
2018-04-02T18:01:00.760Z,41.30
2018-04-02T18:03:29.048Z,41.80
2018-04-02T18:05:57.343Z,42.00
2018-04-02T18:08:25.619Z,41.80
2018-04-02T18:10:53.173Z,41.70
2018-04-02T18:13:20.695Z,42.20
2018-04-02T18:15:48.243Z,41.70
2018-04-02T18:18:16.532Z,42.00
2018-04-02T18:20:44.845Z,41.70
2018-04-02T18:23:12.360Z,41.60
2018-04-02T18:25:39.906Z,41.60
2018-04-02T18:28:07.440Z,41.70
2018-04-02T18:30:34.983Z,41.60
2018-04-02T18:33:02.518Z,43.80
2018-04-02T18:35:30.029Z,43.60
2018-04-02T18:37:57.564Z,43.80
2018-04-02T18:40:25.097Z,44.50
2018-04-02T18:42:53.409Z,43.80
2018-04-02T18:45:20.944Z,43.70
2018-04-02T18:50:33.824Z,43.10
2018-04-02T18:53:01.394Z,43.10
2018-04-02T18:55:28.939Z,42.80
2018-04-02T18:57:56.492Z,42.80
2018-04-02T19:00:24.008Z,43.30
2018-04-02T19:02:52.331Z,43.80
2018-04-02T19:05:19.860Z,43.80
2018-04-02T19:07:48.172Z,44.10
2018-04-02T19:10:15.692Z,44.00
2018-04-02T19:12:43.289Z,44.80
2018-04-02T19:15:11.568Z,43.70
2018-04-02T19:17:39.103Z,43.50
2018-04-02T19:20:06.620Z,43.30
2018-04-02T19:22:34.161Z,43.20
2018-04-02T19:25:01.678Z,43.30
2018-04-02T19:27:29.240Z,44.10
2018-04-02T19:29:57.545Z,44.50
2018-04-02T19:32:25.085Z,44.40
2018-04-02T19:34:52.626Z,44.70
2018-04-02T19:37:20.159Z,44.60
2018-04-02T19:39:48.453Z,44.40
2018-04-02T19:42:16.925Z,44.40
2018-04-02T19:44:44.480Z,43.90
2018-04-02T19:47:12.005Z,43.70
2018-04-02T19:49:39.552Z,43.50
2018-04-02T19:52:07.833Z,43.80
2018-04-02T19:54:36.124Z,44.10
2018-04-02T19:57:04.428Z,44.70
2018-04-02T19:59:32.734Z,43.90
2018-04-02T20:02:00.244Z,43.90
2018-04-02T20:04:27.787Z,43.50
2018-04-02T20:06:55.296Z,43.70
2018-04-02T20:09:22.840Z,43.50
2018-04-02T20:11:50.357Z,43.10
2018-04-02T20:14:18.661Z,43.60
2018-04-02T20:16:46.956Z,43.80
2018-04-02T20:19:14.508Z,43.70
2018-04-02T20:21:42.794Z,44.40
2018-04-02T20:24:11.098Z,44.60
2018-04-02T20:26:39.372Z,44.80
2018-04-02T20:29:06.920Z,44.70
2018-04-02T20:31:35.204Z,44.60
2018-04-02T20:34:02.766Z,44.60
2018-04-02T20:36:30.274Z,45.40
2018-04-02T20:38:57.890Z,45.30
2018-04-02T20:41:25.404Z,44.50
2018-04-02T20:43:52.948Z,45.00
2018-04-02T20:46:20.455Z,45.30
2018-04-02T20:48:48.008Z,45.10
2018-04-02T20:51:15.565Z,45.70
2018-04-02T20:53:43.099Z,46.00
2018-04-02T20:56:11.404Z,46.90
2018-04-02T20:58:38.924Z,46.90
2018-04-02T21:01:06.468Z,46.80
2018-04-02T21:03:33.987Z,47.00
2018-04-02T21:06:02.294Z,47.00
2018-04-02T21:08:30.579Z,47.30
2018-04-02T21:10:58.876Z,47.00
2018-04-02T21:13:27.158Z,47.20
2018-04-02T21:15:55.466Z,46.90
2018-04-02T21:18:22.980Z,46.90
2018-04-02T21:20:50.543Z,47.40
2018-04-02T21:23:18.056Z,47.70
2018-04-02T21:25:45.624Z,48.20
2018-04-02T21:28:14.645Z,49.10
2018-04-02T21:30:45.159Z,49.10
2018-04-02T21:33:13.477Z,49.20
2018-04-02T21:35:41.873Z,49.20
2018-04-02T21:38:10.156Z,49.30
2018-04-02T21:40:38.484Z,49.60
2018-04-02T21:43:06.776Z,50.00
2018-04-02T21:45:34.386Z,49.90
2018-04-02T21:48:01.873Z,49.90
2018-04-02T21:50:30.168Z,50.20
2018-04-02T21:52:58.451Z,50.20
2018-04-02T21:55:26.818Z,50.50
2018-04-02T21:57:54.329Z,50.50
2018-04-02T22:00:22.859Z,50.70
2018-04-02T22:02:52.030Z,50.70
2018-04-02T22:05:21.249Z,51.10
2018-04-02T22:07:48.768Z,51.40
2018-04-02T22:10:16.571Z,51.70
2018-04-02T22:12:44.399Z,52.30
2018-04-02T22:15:11.959Z,52.20
2018-04-02T22:17:39.551Z,52.80
2018-04-02T22:20:07.206Z,53.20
2018-04-02T22:22:35.330Z,53.50
2018-04-02T22:25:03.275Z,53.90
2018-04-02T22:27:30.810Z,53.70
2018-04-02T22:29:59.245Z,53.80
2018-04-02T22:32:26.901Z,54.10
2018-04-02T22:34:55.081Z,54.30
2018-04-02T22:37:23.684Z,54.30
2018-04-02T22:39:51.210Z,54.30
2018-04-02T22:42:18.744Z,54.50
2018-04-02T22:44:48.252Z,54.50
2018-04-02T22:47:17.541Z,54.50
2018-04-02T22:49:45.382Z,54.50
2018-04-02T22:52:13.792Z,55.40
2018-04-02T22:54:43.483Z,55.30
2018-04-02T22:57:11.887Z,55.50
2018-04-02T22:59:39.896Z,55.50
2018-04-02T23:02:07.424Z,55.80
2018-04-02T23:04:34.946Z,56.10
2018-04-02T23:07:03.513Z,56.00
2018-04-02T23:09:31.653Z,56.20
2018-04-02T23:11:58.584Z,56.10
2018-04-02T23:14:26.109Z,56.70
2018-04-02T23:16:53.656Z,56.60
2018-04-02T23:19:21.168Z,56.50
2018-04-02T23:21:48.698Z,56.90
2018-04-02T23:24:16.278Z,56.90
2018-04-02T23:26:43.833Z,57.20
2018-04-02T23:29:11.364Z,57.30
2018-04-02T23:31:38.934Z,57.60
2018-04-02T23:34:06.565Z,57.70
2018-04-02T23:36:34.125Z,57.60
2018-04-02T23:39:02.442Z,57.80
2018-04-02T23:41:29.966Z,57.70
2018-04-02T23:43:58.265Z,57.60
2018-04-02T23:46:26.565Z,57.80
2018-04-02T23:48:54.879Z,57.70
2018-04-02T23:51:22.399Z,57.70
2018-04-02T23:53:49.931Z,58.30
2018-04-02T23:56:17.464Z,57.90
2018-04-02T23:58:45.922Z,57.70
